createdAt,value
2023-01-25T00:01:15.022Z,0.36
2023-01-25T00:04:17.531Z,0.53
2023-01-25T00:07:20.234Z,0.56
2023-01-25T00:10:22.926Z,0.66
2023-01-25T00:13:25.908Z,0.67
2023-01-25T00:16:28.648Z,0.63
2023-01-25T00:19:31.597Z,0.70
2023-01-25T00:22:34.522Z,0.68
2023-01-25T00:25:37.335Z,0.64
2023-01-25T00:28:40.208Z,0.62
2023-01-25T00:32:02.672Z,0.57
2023-01-25T00:35:12.568Z,0.51
2023-01-25T00:38:29.860Z,0.43
2023-01-25T00:41:32.957Z,0.42
2023-01-25T00:44:36.000Z,0.37
2023-01-25T00:47:38.971Z,0.31
2023-01-25T00:50:42.745Z,0.29
2023-01-25T00:53:45.559Z,0.21
2023-01-25T00:56:48.321Z,0.21
2023-01-25T00:59:50.959Z,0.17
2023-01-25T01:02:53.938Z,0.18
2023-01-25T01:06:06.036Z,0.09
2023-01-25T01:09:14.035Z,0.13
2023-01-25T01:12:16.489Z,0.18
2023-01-25T01:15:19.292Z,0.01
2023-01-25T01:18:22.434Z,0.09
2023-01-25T01:21:25.353Z,-0.04
2023-01-25T01:24:28.450Z,0.06
2023-01-25T01:27:31.340Z,0.02
2023-01-25T01:30:34.257Z,-0.10
2023-01-25T01:33:37.451Z,-0.10
2023-01-25T01:36:39.856Z,-0.06
2023-01-25T01:39:42.569Z,-0.13
2023-01-25T01:42:59.259Z,-0.13
2023-01-25T01:46:22.771Z,-0.13
2023-01-25T01:49:29.317Z,-0.20
2023-01-25T01:52:38.903Z,-0.29
2023-01-25T01:55:43.191Z,-0.31
2023-01-25T01:58:47.372Z,-0.24
2023-01-25T02:01:50.207Z,-0.25
2023-01-25T02:04:55.490Z,-0.23
2023-01-25T02:07:59.036Z,-0.27
2023-01-25T02:11:04.079Z,-0.17
2023-01-25T02:14:07.150Z,-0.21
2023-01-25T02:17:11.761Z,-0.22
2023-01-25T02:20:26.726Z,-0.25
2023-01-25T02:23:37.677Z,-0.24
2023-01-25T02:26:41.028Z,-0.22
2023-01-25T02:29:45.809Z,-0.20
2023-01-25T02:32:48.604Z,-0.12
2023-01-25T02:35:58.440Z,-0.25
2023-01-25T02:39:03.956Z,-0.37
2023-01-25T02:42:06.897Z,-0.29
2023-01-25T02:45:14.508Z,-0.35
2023-01-25T02:48:17.255Z,-0.37
2023-01-25T02:51:22.151Z,-0.37
2023-01-25T02:54:28.740Z,-0.21
2023-01-25T02:57:32.165Z,-0.21
2023-01-25T03:00:36.729Z,-0.18
2023-01-25T03:03:40.488Z,-0.29
2023-01-25T03:06:43.786Z,-0.25
2023-01-25T03:09:46.984Z,-0.25
2023-01-25T03:12:49.818Z,-0.36
2023-01-25T03:15:53.415Z,-0.34
2023-01-25T03:18:56.583Z,-0.27
2023-01-25T03:22:00.365Z,-0.15
2023-01-25T03:25:03.830Z,-0.07
2023-01-25T03:28:06.676Z,0.00
2023-01-25T03:31:12.243Z,-0.01
2023-01-25T03:34:15.075Z,-0.10
2023-01-25T03:37:19.495Z,-0.04
2023-01-25T03:40:26.591Z,-0.07
2023-01-25T03:43:29.832Z,-0.08
2023-01-25T03:46:32.893Z,-0.17
2023-01-25T03:49:35.872Z,-0.18
2023-01-25T03:52:57.442Z,-0.22
2023-01-25T03:56:10.941Z,-0.35
2023-01-25T03:59:16.520Z,-0.44
2023-01-25T04:02:20.574Z,-0.54
2023-01-25T04:05:23.460Z,-0.62
2023-01-25T04:08:27.099Z,-0.60
2023-01-25T04:11:29.701Z,-0.67
2023-01-25T04:14:43.902Z,-0.68
2023-01-25T04:17:51.524Z,-0.47
2023-01-25T04:21:01.737Z,-0.54
2023-01-25T04:24:04.873Z,-0.42
2023-01-25T04:27:12.108Z,-0.47
2023-01-25T04:30:22.612Z,-0.57
2023-01-25T04:33:26.705Z,-0.60
2023-01-25T04:36:29.371Z,-0.62
2023-01-25T04:39:32.170Z,-0.65
2023-01-25T04:42:34.746Z,-0.65
2023-01-25T04:45:37.595Z,-0.66
2023-01-25T04:48:45.981Z,-0.64
2023-01-25T04:51:49.380Z,-0.59
2023-01-25T04:54:51.984Z,-0.73
2023-01-25T04:57:54.831Z,-0.65
2023-01-25T05:01:04.276Z,-0.67
2023-01-25T05:04:08.154Z,-0.68
2023-01-25T05:07:15.140Z,-0.71
2023-01-25T05:10:18.614Z,-0.80
2023-01-25T05:13:40.948Z,-0.79
2023-01-25T05:16:50.280Z,-0.75
2023-01-25T05:19:52.917Z,-0.63
2023-01-25T05:22:58.594Z,-0.52
2023-01-25T05:26:19.625Z,-0.43
2023-01-25T05:29:22.648Z,-0.27
2023-01-25T05:32:32.960Z,-0.20
2023-01-25T05:35:36.376Z,-0.12
2023-01-25T05:38:39.421Z,-0.05
2023-01-25T05:41:44.484Z,-0.02
2023-01-25T05:44:47.886Z,-0.01
2023-01-25T05:47:55.524Z,-0.09
2023-01-25T05:50:58.830Z,-0.02
2023-01-25T05:54:02.549Z,-0.03
2023-01-25T05:57:05.214Z,-0.06
2023-01-25T06:00:11.323Z,-0.07
2023-01-25T06:03:17.643Z,-0.10
2023-01-25T06:06:21.407Z,-0.17
2023-01-25T06:09:24.189Z,-0.15
2023-01-25T06:12:29.379Z,-0.12
2023-01-25T06:15:32.967Z,-0.06
2023-01-25T06:18:58.441Z,-0.10
2023-01-25T06:22:17.185Z,-0.01
2023-01-25T06:25:19.719Z,-0.07
2023-01-25T06:28:22.280Z,-0.07
2023-01-25T06:31:24.991Z,-0.01
2023-01-25T06:34:27.803Z,0.00
2023-01-25T06:37:30.482Z,0.07
2023-01-25T06:40:34.114Z,-0.02
2023-01-25T06:43:37.646Z,0.03
2023-01-25T06:46:40.721Z,0.06
2023-01-25T06:49:43.658Z,0.09
2023-01-25T06:52:52.336Z,0.30
2023-01-25T06:56:22.127Z,1.59
2023-01-25T06:59:24.710Z,2.08
2023-01-25T07:02:27.376Z,2.21
2023-01-25T07:05:30.103Z,2.76
2023-01-25T07:08:34.569Z,3.15
2023-01-25T07:11:37.436Z,3.65
2023-01-25T07:14:40.768Z,3.48
2023-01-25T07:17:43.340Z,3.93
2023-01-25T07:20:46.339Z,4.51
2023-01-25T07:23:52.824Z,5.00
2023-01-25T07:26:55.360Z,5.57
2023-01-25T07:29:58.237Z,5.59
2023-01-25T07:33:00.866Z,6.52
2023-01-25T07:36:06.824Z,6.33
2023-01-25T07:39:13.546Z,6.73
2023-01-25T07:42:16.427Z,7.36
2023-01-25T07:45:30.560Z,7.58
2023-01-25T07:48:33.502Z,8.19
2023-01-25T07:51:36.486Z,8.45
2023-01-25T07:54:39.159Z,8.98
2023-01-25T07:57:41.647Z,9.21
2023-01-25T08:00:45.106Z,9.89
2023-01-25T08:03:48.204Z,10.44
2023-01-25T08:06:50.838Z,11.01
2023-01-25T08:09:53.635Z,10.69
2023-01-25T08:12:56.527Z,9.84
2023-01-25T08:15:58.949Z,9.88
2023-01-25T08:19:03.385Z,10.85
2023-01-25T08:22:08.376Z,11.90
2023-01-25T08:25:11.374Z,11.34
2023-01-25T08:28:14.051Z,11.27
2023-01-25T08:31:20.200Z,12.23
2023-01-25T08:34:22.760Z,12.18
2023-01-25T08:37:29.639Z,12.73
2023-01-25T08:40:32.205Z,12.22
2023-01-25T08:43:35.703Z,11.30
2023-01-25T08:46:38.526Z,12.55
2023-01-25T08:49:41.227Z,12.84
2023-01-25T08:52:43.944Z,12.26
2023-01-25T08:55:46.997Z,11.99
2023-01-25T08:58:50.487Z,12.04
2023-01-25T09:01:53.791Z,12.89
2023-01-25T09:04:56.382Z,12.56
2023-01-25T09:07:59.452Z,13.44
2023-01-25T09:11:06.761Z,13.44
2023-01-25T09:14:09.446Z,13.08
2023-01-25T09:17:12.037Z,13.95
2023-01-25T09:20:16.209Z,12.51
2023-01-25T09:23:22.816Z,11.85
2023-01-25T09:26:25.550Z,12.52
2023-01-25T09:29:28.253Z,13.33
2023-01-25T09:32:31.269Z,13.09
2023-01-25T09:35:34.332Z,13.01
2023-01-25T09:38:37.319Z,13.14
2023-01-25T09:42:14.873Z,13.41
2023-01-25T09:45:42.518Z,14.43
2023-01-25T09:49:07.761Z,14.72
2023-01-25T09:52:26.526Z,14.23
2023-01-25T09:55:30.878Z,13.98
2023-01-25T09:58:38.681Z,12.29
2023-01-25T10:01:56.135Z,12.50
2023-01-25T10:05:07.891Z,13.53
2023-01-25T10:08:36.507Z,14.73
2023-01-25T10:11:39.440Z,14.18
2023-01-25T10:14:42.060Z,14.89
2023-01-25T10:17:45.108Z,13.58
2023-01-25T10:20:55.982Z,13.49
2023-01-25T10:24:36.421Z,14.07
2023-01-25T10:28:05.314Z,13.13
2023-01-25T10:31:28.342Z,13.42
2023-01-25T10:34:47.017Z,12.38
2023-01-25T10:38:03.199Z,11.05
2023-01-25T10:41:13.949Z,10.31
2023-01-25T10:44:24.043Z,9.09
2023-01-25T10:47:34.338Z,8.95
2023-01-25T10:50:43.163Z,8.81
2023-01-25T10:54:02.927Z,8.28
2023-01-25T10:57:13.049Z,7.59
2023-01-25T11:00:38.766Z,7.56
2023-01-25T11:03:46.625Z,7.06
2023-01-25T11:06:51.623Z,7.05
2023-01-25T11:09:54.307Z,6.81
2023-01-25T11:13:17.424Z,6.35
2023-01-25T11:16:50.536Z,6.17
2023-01-25T11:20:18.852Z,6.38
2023-01-25T11:23:24.812Z,6.68
2023-01-25T11:26:28.556Z,6.30
2023-01-25T11:29:31.226Z,6.06
2023-01-25T11:32:34.063Z,6.23
2023-01-25T11:35:41.120Z,6.34
2023-01-25T11:39:03.723Z,6.46
2023-01-25T11:42:34.016Z,6.34
2023-01-25T11:45:42.538Z,6.36
2023-01-25T11:49:10.852Z,6.37
2023-01-25T11:52:41.251Z,6.58
2023-01-25T11:55:58.826Z,6.05
2023-01-25T11:59:09.658Z,6.00
2023-01-25T12:02:24.249Z,6.11
2023-01-25T12:05:43.742Z,5.99
2023-01-25T12:08:46.167Z,5.73
2023-01-25T12:11:52.412Z,5.81
2023-01-25T12:15:08.452Z,5.75
2023-01-25T12:18:20.242Z,5.78
2023-01-25T12:21:47.606Z,6.02
2023-01-25T12:25:20.530Z,5.65
2023-01-25T12:28:50.592Z,5.84
2023-01-25T12:32:14.291Z,5.59
2023-01-25T12:35:38.583Z,5.33
2023-01-25T12:38:53.738Z,5.26
2023-01-25T12:42:15.737Z,5.05
2023-01-25T12:45:24.787Z,5.15
2023-01-25T12:48:31.805Z,5.22
2023-01-25T12:51:40.117Z,5.30
2023-01-25T12:54:46.184Z,5.30
2023-01-25T12:58:23.815Z,5.45
2023-01-25T13:01:55.489Z,5.32
2023-01-25T13:05:25.303Z,5.32
2023-01-25T13:08:35.300Z,5.27
2023-01-25T13:11:41.058Z,5.43
2023-01-25T13:14:44.224Z,5.32
2023-01-25T13:17:46.786Z,5.22
2023-01-25T13:20:53.221Z,5.14
2023-01-25T13:24:24.878Z,5.19
2023-01-25T13:27:29.699Z,5.19
2023-01-25T13:30:36.147Z,5.27
2023-01-25T13:33:38.864Z,5.26
2023-01-25T13:36:41.495Z,5.04
2023-01-25T13:40:09.670Z,4.76
2023-01-25T13:43:13.298Z,4.63
2023-01-25T13:46:19.285Z,4.61
2023-01-25T13:49:26.219Z,4.41
2023-01-25T13:52:31.303Z,4.50
2023-01-25T13:55:43.095Z,5.92
2023-01-25T13:58:48.153Z,6.26
2023-01-25T14:01:51.465Z,6.63
2023-01-25T14:04:54.695Z,6.55
2023-01-25T14:07:57.372Z,6.54
2023-01-25T14:11:01.004Z,5.88
2023-01-25T14:14:16.241Z,5.37
2023-01-25T14:17:22.748Z,5.33
2023-01-25T14:20:25.782Z,5.09
2023-01-25T14:23:30.628Z,4.69
2023-01-25T14:26:39.249Z,4.25
2023-01-25T14:29:49.135Z,4.11
2023-01-25T14:32:57.996Z,3.96
2023-01-25T14:36:24.192Z,3.92
2023-01-25T14:39:29.468Z,3.83
2023-01-25T14:42:32.811Z,3.67
2023-01-25T14:45:35.295Z,3.63
2023-01-25T14:48:41.209Z,3.62
2023-01-25T14:51:45.567Z,3.64
2023-01-25T14:54:52.315Z,3.53
2023-01-25T14:58:00.742Z,3.46
2023-01-25T15:01:05.058Z,3.64
2023-01-25T15:04:13.025Z,3.71
2023-01-25T15:07:33.066Z,3.32
2023-01-25T15:10:38.553Z,3.34
2023-01-25T15:13:41.173Z,3.24
2023-01-25T15:16:43.828Z,3.16
2023-01-25T15:19:52.574Z,3.15
2023-01-25T15:22:56.953Z,3.08
2023-01-25T15:26:01.564Z,3.03
2023-01-25T15:29:16.224Z,3.19
2023-01-25T15:32:21.185Z,3.14
2023-01-25T15:35:23.935Z,3.06
2023-01-25T15:38:26.942Z,3.12
2023-01-25T15:41:29.792Z,3.13
2023-01-25T15:44:32.485Z,3.00
2023-01-25T15:47:36.633Z,3.12
2023-01-25T15:50:42.677Z,3.21
2023-01-25T15:53:45.457Z,3.17
2023-01-25T15:56:52.492Z,2.97
2023-01-25T15:59:56.191Z,2.93
2023-01-25T16:02:59.137Z,2.95
2023-01-25T16:06:20.396Z,2.97
2023-01-25T16:09:26.946Z,2.99
2023-01-25T16:12:32.431Z,2.81
2023-01-25T16:15:37.034Z,2.97
2023-01-25T16:18:40.335Z,2.92
2023-01-25T16:21:43.551Z,2.74
2023-01-25T16:24:46.228Z,2.75
2023-01-25T16:27:50.250Z,2.67
2023-01-25T16:30:53.524Z,2.70
2023-01-25T16:33:56.289Z,2.73
2023-01-25T16:37:00.504Z,2.67
2023-01-25T16:40:03.925Z,2.66
2023-01-25T16:43:07.242Z,2.66
2023-01-25T16:46:28.326Z,2.62
2023-01-25T16:49:32.074Z,2.59
2023-01-25T16:52:35.126Z,2.54
2023-01-25T16:55:37.974Z,2.62
2023-01-25T16:58:40.690Z,2.61
2023-01-25T17:01:43.892Z,2.70
2023-01-25T17:04:46.574Z,2.62
2023-01-25T17:07:50.784Z,2.53
2023-01-25T17:10:57.573Z,2.49
2023-01-25T17:14:00.837Z,2.37
2023-01-25T17:17:05.517Z,2.39
2023-01-25T17:20:09.172Z,2.45
2023-01-25T17:23:17.035Z,2.40
2023-01-25T17:26:27.831Z,2.37
2023-01-25T17:29:31.118Z,2.42
2023-01-25T17:32:33.933Z,2.28
2023-01-25T17:35:36.828Z,2.18
2023-01-25T17:38:40.656Z,2.34
2023-01-25T17:41:44.624Z,2.40
2023-01-25T17:44:47.641Z,2.36
2023-01-25T17:47:50.332Z,2.30
2023-01-25T17:51:04.256Z,2.38
2023-01-25T17:54:07.473Z,2.35
2023-01-25T17:57:10.598Z,2.22
2023-01-25T18:00:14.672Z,2.23
2023-01-25T18:03:20.273Z,2.31
2023-01-25T18:06:26.188Z,2.21
2023-01-25T18:09:31.520Z,2.26
2023-01-25T18:12:34.809Z,2.28
2023-01-25T18:15:37.719Z,2.28
2023-01-25T18:18:42.989Z,2.23
2023-01-25T18:21:45.765Z,2.20
2023-01-25T18:24:49.041Z,2.12
2023-01-25T18:27:51.794Z,2.08
2023-01-25T18:31:02.552Z,1.98
2023-01-25T18:34:06.681Z,1.99
2023-01-25T18:37:18.407Z,2.01
2023-01-25T18:40:21.666Z,2.13
2023-01-25T18:43:25.184Z,2.02
2023-01-25T18:46:28.358Z,2.09
2023-01-25T18:49:31.504Z,2.12
2023-01-25T18:52:35.709Z,2.12
2023-01-25T18:55:38.709Z,2.00
2023-01-25T18:58:42.497Z,2.09
2023-01-25T19:01:45.876Z,1.98
2023-01-25T19:04:50.329Z,1.89
2023-01-25T19:07:53.684Z,1.89
2023-01-25T19:11:03.991Z,1.95
2023-01-25T19:14:07.203Z,1.82
2023-01-25T19:17:11.740Z,1.86
2023-01-25T19:20:14.808Z,1.83
2023-01-25T19:23:17.842Z,1.78
2023-01-25T19:26:22.586Z,1.83
2023-01-25T19:29:25.437Z,1.82
2023-01-25T19:32:28.670Z,1.89
2023-01-25T19:35:31.400Z,1.87
2023-01-25T19:38:39.106Z,1.93
2023-01-25T19:41:42.296Z,2.03
2023-01-25T19:44:45.621Z,2.07
2023-01-25T19:47:48.496Z,1.91
2023-01-25T19:50:55.023Z,1.91
2023-01-25T19:54:05.084Z,1.85
2023-01-25T19:57:08.451Z,1.77
2023-01-25T20:00:12.245Z,1.74
2023-01-25T20:03:17.005Z,1.72
2023-01-25T20:06:20.988Z,1.74
2023-01-25T20:09:28.344Z,1.75
2023-01-25T20:12:31.380Z,1.76
2023-01-25T20:15:35.717Z,1.80
2023-01-25T20:18:41.761Z,1.81
2023-01-25T20:21:45.318Z,1.76
2023-01-25T20:24:48.401Z,1.82
2023-01-25T20:27:51.965Z,1.71
2023-01-25T20:30:58.441Z,1.80
2023-01-25T20:34:07.628Z,1.81
2023-01-25T20:37:10.535Z,1.97
2023-01-25T20:40:14.674Z,1.92
2023-01-25T20:43:18.472Z,1.83
2023-01-25T20:46:22.241Z,1.73
2023-01-25T20:49:25.995Z,1.80
2023-01-25T20:52:29.540Z,1.70
2023-01-25T20:55:32.280Z,1.85
2023-01-25T20:58:35.653Z,2.02
2023-01-25T21:01:38.278Z,2.14
2023-01-25T21:04:41.338Z,2.22
2023-01-25T21:07:44.198Z,2.16
2023-01-25T21:10:58.635Z,2.13
2023-01-25T21:14:01.266Z,2.18
2023-01-25T21:17:04.757Z,2.16
2023-01-25T21:20:08.445Z,2.11
2023-01-25T21:23:13.612Z,2.05
2023-01-25T21:26:20.319Z,1.99
2023-01-25T21:29:23.549Z,2.02
2023-01-25T21:32:26.174Z,2.04
2023-01-25T21:35:29.843Z,2.02
2023-01-25T21:38:32.763Z,2.09
2023-01-25T21:41:35.778Z,2.12
2023-01-25T21:44:57.338Z,2.09
2023-01-25T21:48:00.346Z,2.19
2023-01-25T21:51:22.341Z,2.13
2023-01-25T21:54:27.828Z,2.21
2023-01-25T21:57:30.464Z,2.18
2023-01-25T22:00:37.670Z,2.20
2023-01-25T22:03:40.381Z,2.14
2023-01-25T22:06:43.167Z,2.11
2023-01-25T22:09:45.798Z,2.01
2023-01-25T22:12:50.838Z,2.08
2023-01-25T22:15:57.863Z,2.02
2023-01-25T22:19:00.750Z,2.09
2023-01-25T22:22:03.940Z,2.09
2023-01-25T22:25:07.157Z,2.11
2023-01-25T22:28:14.316Z,2.14
2023-01-25T22:31:22.275Z,2.20
2023-01-25T22:34:25.005Z,2.21
2023-01-25T22:37:28.064Z,2.18
2023-01-25T22:40:31.582Z,2.19
2023-01-25T22:43:35.563Z,2.15
2023-01-25T22:46:38.201Z,2.17
2023-01-25T22:49:41.081Z,2.14
2023-01-25T22:52:43.850Z,2.15
2023-01-25T22:55:46.634Z,2.12
2023-01-25T22:58:49.820Z,2.09
2023-01-25T23:01:53.231Z,2.05
2023-01-25T23:04:55.701Z,2.04
2023-01-25T23:07:59.636Z,2.08
2023-01-25T23:11:04.630Z,2.13
2023-01-25T23:14:30.206Z,2.13
2023-01-25T23:17:52.357Z,2.06
2023-01-25T23:20:56.472Z,1.95
2023-01-25T23:24:01.015Z,2.00
2023-01-25T23:27:03.749Z,1.98
2023-01-25T23:30:07.334Z,2.06
2023-01-25T23:33:10.880Z,2.04
2023-01-25T23:36:18.649Z,2.05
2023-01-25T23:39:23.178Z,1.94
2023-01-25T23:42:25.775Z,1.99
2023-01-25T23:45:28.596Z,1.96
2023-01-25T23:48:31.388Z,2.00
2023-01-25T23:51:34.537Z,1.85
2023-01-25T23:54:37.393Z,1.82
2023-01-25T23:57:40.169Z,1.87
